Time;durP1;ratioP1;P1;durP2;ratioP2;P2;SDS_P1;SDS_P2;PMS_P1;PMS_P2;Temp;Humidity;BMP_temperature;BMP_pressure;BME280_temperature;BME280_humidity;BME280_pressure;Samples;Min_cycle;Max_cycle;Signal;HPM_P1;HPM_P2
2021/08/23 00:01:06;;;;;;;3.97;1.58;;;20.70;98.50;;;;;;5121891;28;20035;-75
2021/08/23 00:03:32;;;;;;;3.78;1.83;;;20.40;98.60;;;;;;5111559;28;20035;-75
2021/08/23 00:05:58;;;;;;;3.25;1.50;;;20.20;98.90;;;;;;5099507;28;20052;-75
2021/08/23 00:08:25;;;;;;;2.95;1.30;;;20.20;98.90;;;;;;5111013;28;20427;-75
2021/08/23 00:10:52;;;;;;;4.53;2.45;;;20.20;98.90;;;;;;5119085;28;20027;-75
2021/08/23 00:13:18;;;;;;;4.80;1.90;;;20.20;98.70;;;;;;5111851;27;20358;-76
2021/08/23 00:15:46;;;;;;;3.70;2.25;;;20.30;98.90;;;;;;5109327;28;20057;-75
2021/08/23 00:18:12;;;;;;;3.30;1.60;;;20.20;99.10;;;;;;5091302;28;20497;-75
2021/08/23 00:20:43;;;;;;;3.97;1.60;;;20.20;98.90;;;;;;5096893;28;20054;-77
2021/08/23 00:23:16;;;;;;;3.22;1.67;;;20.20;98.80;;;;;;5091121;28;20060;-75
2021/08/23 00:25:42;;;;;;;3.25;1.50;;;20.30;98.60;;;;;;5092005;28;20379;-76
2021/08/23 00:28:10;;;;;;;6.22;1.65;;;20.20;98.60;;;;;;5091685;28;20131;-75
2021/08/23 00:30:37;;;;;;;4.60;1.80;;;20.30;98.30;;;;;;5123813;28;20020;-76
2021/08/23 00:33:03;;;;;;;3.65;1.77;;;20.40;98.20;;;;;;5094804;27;20024;-76
2021/08/23 00:35:28;;;;;;;3.75;1.58;;;20.20;98.40;;;;;;5108794;28;20404;-75
2021/08/23 00:37:55;;;;;;;4.85;1.60;;;20.30;98.10;;;;;;5107957;28;20028;-76
2021/08/23 00:40:22;;;;;;;3.13;1.50;;;20.30;97.90;;;;;;5111286;28;20346;-75
2021/08/23 00:42:50;;;;;;;4.72;1.67;;;20.30;98.20;;;;;;5125536;28;20039;-75
2021/08/23 00:45:17;;;;;;;2.78;1.35;;;20.20;98.40;;;;;;5131542;28;20025;-75
2021/08/23 00:47:42;;;;;;;3.22;1.70;;;20.20;98.60;;;;;;5097289;27;20075;-75
2021/08/23 00:50:08;;;;;;;3.70;2.15;;;20.20;98.50;;;;;;5090696;28;20047;-75
2021/08/23 00:52:34;;;;;;;3.72;1.92;;;20.30;98.50;;;;;;5117159;28;20027;-75
2021/08/23 00:55:01;;;;;;;3.15;1.63;;;20.30;98.50;;;;;;5116844;28;20070;-77
2021/08/23 00:57:27;;;;;;;4.00;2.00;;;20.30;98.40;;;;;;5102543;28;20070;-76
2021/08/23 00:59:53;;;;;;;3.78;1.70;;;20.30;98.50;;;;;;5103049;28;20047;-75
2021/08/23 01:02:29;;;;;;;7.20;2.03;;;20.00;99.00;;;;;;5122708;27;20466;-75
2021/08/23 01:05:11;;;;;;;3.40;1.80;;;20.00;99.00;;;;;;5108743;28;20385;-76
2021/08/23 01:07:48;;;;;;;3.15;1.45;;;20.10;98.80;;;;;;5109204;28;20084;-76
2021/08/23 01:10:24;;;;;;;2.15;1.15;;;20.00;98.70;;;;;;5107215;28;20039;-75
2021/08/23 01:12:50;;;;;;;3.85;1.83;;;20.10;98.80;;;;;;5107191;28;20024;-75
2021/08/23 01:15:16;;;;;;;3.17;1.65;;;20.10;98.80;;;;;;5110157;28;20545;-75
2021/08/23 01:17:41;;;;;;;4.60;1.98;;;20.20;98.70;;;;;;5118451;28;20039;-76
2021/08/23 01:20:09;;;;;;;4.68;2.13;;;20.10;98.80;;;;;;5124421;27;20063;-75
2021/08/23 01:23:01;;;;;;;3.70;1.75;;;20.10;98.90;;;;;;5108474;27;20031;-75
2021/08/23 01:25:34;;;;;;;3.28;1.70;;;20.00;99.30;;;;;;5090801;28;20806;-75
2021/08/23 01:28:06;;;;;;;3.75;1.65;;;19.90;99.60;;;;;;5113153;27;20038;-75
2021/08/23 01:30:42;;;;;;;4.53;1.92;;;19.90;99.50;;;;;;5113549;27;20032;-75
2021/08/23 01:33:08;;;;;;;3.45;1.70;;;19.90;99.50;;;;;;5097048;28;20028;-75
2021/08/23 01:35:34;;;;;;;3.38;1.77;;;20.10;99.10;;;;;;5093869;28;20032;-75
2021/08/23 01:38:00;;;;;;;3.60;1.67;;;20.10;99.10;;;;;;5108715;28;20035;-76
2021/08/23 01:40:25;;;;;;;3.90;1.60;;;20.00;99.20;;;;;;5112975;28;20031;-76
2021/08/23 01:42:51;;;;;;;5.35;2.22;;;19.90;99.60;;;;;;5093869;28;20028;-75
2021/08/23 01:45:18;;;;;;;4.57;1.75;;;19.70;99.90;;;;;;5093743;28;20370;-75
2021/08/23 01:47:43;;;;;;;3.35;1.60;;;19.70;99.90;;;;;;5121861;27;20027;-75
2021/08/23 01:50:09;;;;;;;3.92;1.58;;;19.60;99.90;;;;;;5130366;27;20027;-75
2021/08/23 01:52:35;;;;;;;4.35;1.88;;;19.70;99.90;;;;;;5098450;28;20027;-75
2021/08/23 01:55:01;;;;;;;3.63;1.58;;;19.70;99.90;;;;;;5113456;28;20051;-76
2021/08/23 01:57:27;;;;;;;5.05;1.98;;;19.70;99.90;;;;;;5114545;27;20115;-76
2021/08/23 01:59:53;;;;;;;4.22;1.88;;;19.70;99.90;;;;;;5133799;27;20019;-75
2021/08/23 02:02:19;;;;;;;4.68;2.28;;;19.70;99.90;;;;;;5114113;27;20080;-76
2021/08/23 02:04:45;;;;;;;4.95;2.28;;;19.60;99.90;;;;;;5094791;28;20056;-75
2021/08/23 02:07:11;;;;;;;5.40;1.70;;;19.60;99.90;;;;;;5106063;28;20038;-75
2021/08/23 02:09:36;;;;;;;4.60;1.98;;;19.60;99.90;;;;;;5133078;27;20023;-75
2021/08/23 02:12:02;;;;;;;4.00;1.63;;;19.70;99.80;;;;;;5106861;27;20397;-76
2021/08/23 02:14:28;;;;;;;5.15;1.70;;;19.60;99.90;;;;;;5093382;28;20021;-75
2021/08/23 02:16:54;;;;;;;3.92;1.67;;;19.70;99.90;;;;;;5113418;27;20105;-75
2021/08/23 02:19:21;;;;;;;7.03;1.80;;;19.80;99.80;;;;;;5118339;27;20042;-75
2021/08/23 02:21:55;;;;;;;3.15;1.50;;;19.80;99.60;;;;;;5120345;27;20027;-75
2021/08/23 02:24:22;;;;;;;3.47;1.38;;;19.80;99.50;;;;;;5115322;27;20026;-75
2021/08/23 02:26:48;;;;;;;4.63;1.83;;;19.80;99.50;;;;;;5101595;28;20119;-75
2021/08/23 02:29:14;;;;;;;3.25;2.00;;;19.80;99.60;;;;;;5114877;27;20054;-75
2021/08/23 02:31:40;;;;;;;2.83;1.55;;;19.90;99.40;;;;;;5122307;27;20446;-76
2021/08/23 02:34:06;;;;;;;3.75;1.70;;;19.90;99.20;;;;;;5100951;28;20036;-75
2021/08/23 02:36:31;;;;;;;3.42;1.48;;;20.00;99.20;;;;;;5093560;28;20040;-75
2021/08/23 02:38:57;;;;;;;6.15;2.58;;;19.90;99.30;;;;;;5103856;27;20035;-75
2021/08/23 02:41:24;;;;;;;3.97;2.00;;;20.00;99.20;;;;;;5124964;27;20023;-75
2021/08/23 02:43:49;;;;;;;3.28;1.60;;;20.00;99.20;;;;;;5123827;27;20054;-76
2021/08/23 02:46:15;;;;;;;3.47;2.00;;;19.90;99.50;;;;;;5105749;28;20478;-75
2021/08/23 02:48:41;;;;;;;4.30;2.13;;;19.90;99.50;;;;;;5092820;28;20382;-75
2021/08/23 02:51:07;;;;;;;3.65;1.80;;;19.60;99.90;;;;;;5098057;28;20085;-75
2021/08/23 02:53:32;;;;;;;5.75;2.03;;;19.30;99.90;;;;;;5108562;27;20019;-75
2021/08/23 02:55:58;;;;;;;4.32;1.65;;;19.30;99.90;;;;;;5109924;28;20046;-75
2021/08/23 02:58:24;;;;;;;4.80;2.20;;;19.30;99.90;;;;;;5101577;27;20119;-75
2021/08/23 03:00:49;;;;;;;5.72;1.80;;;19.40;99.90;;;;;;5109861;28;20081;-76
2021/08/23 03:03:15;;;;;;;3.30;1.60;;;19.50;99.90;;;;;;5101811;27;20492;-76
2021/08/23 03:05:41;;;;;;;3.25;1.48;;;19.50;99.90;;;;;;5087563;28;20619;-76
2021/08/23 03:08:06;;;;;;;3.78;1.73;;;19.60;99.90;;;;;;5103174;28;20595;-76
2021/08/23 03:10:32;;;;;;;5.47;1.63;;;19.70;99.90;;;;;;5102594;28;20055;-76
2021/08/23 03:12:58;;;;;;;3.88;1.73;;;19.70;99.90;;;;;;5101254;27;20563;-77
2021/08/23 03:15:23;;;;;;;3.47;1.92;;;19.70;99.90;;;;;;5100708;27;20042;-76
2021/08/23 03:17:49;;;;;;;4.43;2.00;;;19.40;99.90;;;;;;5084442;28;20024;-76
2021/08/23 03:20:15;;;;;;;5.60;1.73;;;19.20;99.90;;;;;;5084429;28;20057;-76
2021/08/23 03:22:41;;;;;;;3.90;2.05;;;19.20;99.90;;;;;;5096357;27;20028;-76
2021/08/23 03:25:07;;;;;;;4.60;2.72;;;19.20;99.90;;;;;;5118407;27;20108;-76
2021/08/23 03:27:33;;;;;;;5.47;2.10;;;19.10;99.90;;;;;;5102782;28;20439;-75
2021/08/23 03:29:59;;;;;;;4.20;1.85;;;19.20;99.90;;;;;;5103257;28;20036;-76
2021/08/23 03:32:25;;;;;;;6.80;2.03;;;19.20;99.90;;;;;;5094302;28;20025;-77
2021/08/23 03:34:50;;;;;;;4.57;1.98;;;19.30;99.90;;;;;;5125079;27;20472;-76
2021/08/23 03:37:16;;;;;;;3.40;1.60;;;19.30;99.90;;;;;;5087397;28;20569;-76
2021/08/23 03:39:42;;;;;;;4.15;1.90;;;19.30;99.90;;;;;;5085408;28;20056;-76
2021/08/23 03:42:07;;;;;;;5.35;2.10;;;19.30;99.90;;;;;;5092685;28;20110;-76
2021/08/23 03:44:33;;;;;;;3.88;1.63;;;19.40;99.90;;;;;;5115928;27;20130;-76
2021/08/23 03:46:59;;;;;;;4.10;2.28;;;19.50;99.90;;;;;;5101849;27;20078;-77
2021/08/23 03:49:25;;;;;;;3.63;1.63;;;19.40;99.90;;;;;;5122861;27;20041;-76
2021/08/23 03:51:50;;;;;;;3.83;1.83;;;19.40;99.90;;;;;;5119085;27;20055;-76
2021/08/23 03:54:16;;;;;;;3.40;1.67;;;19.40;99.90;;;;;;5106681;27;20504;-76
2021/08/23 03:56:42;;;;;;;3.70;1.67;;;19.50;99.90;;;;;;5109395;27;20115;-76
2021/08/23 03:59:07;;;;;;;3.50;1.40;;;19.50;99.90;;;;;;5082274;28;20059;-76
2021/08/23 04:01:33;;;;;;;4.70;1.95;;;19.40;99.90;;;;;;5083030;28;20023;-76
2021/08/23 04:03:59;;;;;;;3.90;1.67;;;19.50;99.90;;;;;;5083848;28;20120;-76
2021/08/23 04:06:25;;;;;;;2.88;1.42;;;19.40;99.90;;;;;;5082873;28;20544;-76
2021/08/23 04:08:50;;;;;;;5.63;1.67;;;19.40;99.90;;;;;;5102625;28;20522;-76
2021/08/23 04:11:16;;;;;;;6.13;1.95;;;19.40;99.90;;;;;;5100117;28;20112;-76
2021/08/23 04:13:43;;;;;;;4.13;2.03;;;19.40;99.90;;;;;;5092540;28;20028;-75
2021/08/23 04:16:18;;;;;;;3.70;1.77;;;19.40;99.90;;;;;;5113902;28;20633;-77
2021/08/23 04:18:43;;;;;;;4.72;1.80;;;19.50;99.90;;;;;;5083756;28;20491;-76
2021/08/23 04:21:09;;;;;;;4.30;1.90;;;19.40;99.90;;;;;;5083345;28;20206;-76
2021/08/23 04:23:35;;;;;;;3.13;1.45;;;19.50;99.90;;;;;;5098597;28;20047;-76
2021/08/23 04:26:01;;;;;;;3.20;1.42;;;19.60;99.90;;;;;;5106292;28;20107;-76
2021/08/23 04:28:26;;;;;;;3.55;1.63;;;19.60;99.90;;;;;;5088184;27;20033;-76
2021/08/23 04:30:52;;;;;;;3.78;1.80;;;19.50;99.90;;;;;;5095422;28;20024;-77
2021/08/23 04:33:18;;;;;;;3.13;1.38;;;19.50;99.90;;;;;;5102151;28;20135;-76
2021/08/23 04:35:44;;;;;;;3.92;1.85;;;19.40;99.90;;;;;;5098687;28;20975;-76
2021/08/23 04:38:10;;;;;;;4.80;1.80;;;19.50;99.90;;;;;;5122452;27;20035;-75
2021/08/23 04:40:36;;;;;;;4.57;1.60;;;19.50;99.90;;;;;;5112287;27;20032;-75
2021/08/23 04:43:02;;;;;;;2.88;1.50;;;19.50;99.90;;;;;;5090482;28;20509;-76
2021/08/23 04:45:29;;;;;;;6.22;2.10;;;19.40;99.90;;;;;;5091890;28;20072;-76
2021/08/23 04:47:55;;;;;;;3.65;1.70;;;19.40;99.90;;;;;;5081642;28;20554;-76
2021/08/23 04:50:20;;;;;;;2.75;1.40;;;19.30;99.90;;;;;;5088467;28;20073;-76
2021/08/23 04:52:46;;;;;;;3.25;1.35;;;19.50;99.90;;;;;;5103526;28;20915;-76
2021/08/23 04:55:12;;;;;;;4.50;1.80;;;19.50;99.90;;;;;;5101403;28;20070;-75
2021/08/23 04:57:39;;;;;;;4.28;2.30;;;19.50;99.90;;;;;;5111132;27;20092;-76
2021/08/23 05:00:08;;;;;;;4.05;1.70;;;19.50;99.90;;;;;;5101503;28;20032;-76
2021/08/23 05:02:33;;;;;;;3.50;1.65;;;19.50;99.90;;;;;;5106433;27;20027;-76
2021/08/23 05:04:59;;;;;;;3.33;1.42;;;19.50;99.90;;;;;;5100892;28;20039;-77
2021/08/23 05:07:25;;;;;;;4.05;2.15;;;19.60;99.90;;;;;;5110423;27;20477;-76
2021/08/23 05:09:50;;;;;;;4.32;1.55;;;19.60;99.90;;;;;;5122965;27;20471;-76
2021/08/23 05:12:16;;;;;;;3.10;1.63;;;19.50;99.90;;;;;;5101705;28;20082;-76
2021/08/23 05:14:42;;;;;;;2.63;1.42;;;19.50;99.90;;;;;;5092023;27;20039;-76
2021/08/23 05:17:07;;;;;;;3.85;1.70;;;19.60;99.90;;;;;;5110543;27;20589;-76
2021/08/23 05:19:33;;;;;;;2.40;1.25;;;19.70;99.90;;;;;;5124557;27;20582;-76
2021/08/23 05:21:59;;;;;;;3.50;1.50;;;19.50;99.90;;;;;;5106531;28;20016;-75
2021/08/23 05:24:24;;;;;;;2.95;1.75;;;19.60;99.90;;;;;;5106185;28;20048;-76
2021/08/23 05:26:50;;;;;;;4.18;1.60;;;19.70;99.90;;;;;;5100301;27;20370;-76
2021/08/23 05:29:16;;;;;;;3.67;1.40;;;19.70;99.90;;;;;;5108022;27;20434;-76
2021/08/23 05:31:41;;;;;;;3.90;1.80;;;19.80;99.90;;;;;;5089098;28;20098;-77
2021/08/23 05:34:07;;;;;;;2.95;1.45;;;19.80;99.80;;;;;;5086463;28;20107;-76
2021/08/23 05:36:33;;;;;;;3.10;1.52;;;19.70;99.90;;;;;;5102960;28;20359;-76
2021/08/23 05:38:58;;;;;;;3.10;1.50;;;19.70;99.90;;;;;;5111557;27;20375;-76
2021/08/23 05:41:24;;;;;;;4.32;1.60;;;19.70;99.90;;;;;;5101547;27;20040;-76
2021/08/23 05:43:50;;;;;;;3.00;1.30;;;19.70;99.90;;;;;;5086676;28;20032;-76
2021/08/23 05:46:25;;;;;;;2.47;1.50;;;19.80;99.80;;;;;;5098998;28;20081;-76
2021/08/23 05:48:51;;;;;;;3.72;1.67;;;19.80;99.80;;;;;;5095509;27;20059;-76
2021/08/23 05:51:18;;;;;;;4.03;1.38;;;19.80;99.50;;;;;;5110126;27;20024;-78
2021/08/23 05:53:44;;;;;;;8.55;1.85;;;19.90;99.30;;;;;;5087524;28;20036;-80
2021/08/23 05:56:10;;;;;;;2.90;1.60;;;19.90;99.90;;;;;;5096558;28;20084;-77
2021/08/23 05:58:36;;;;;;;3.22;1.38;;;19.90;99.20;;;;;;5101424;28;20035;-77
2021/08/23 06:01:03;;;;;;;3.83;1.50;;;20.10;98.80;;;;;;5121511;27;20536;-77
2021/08/23 06:03:29;;;;;;;2.80;1.30;;;20.10;98.60;;;;;;5110071;27;20125;-79
2021/08/23 06:05:54;;;;;;;3.17;1.40;;;20.30;98.80;;;;;;5106700;27;20913;-76
2021/08/23 06:08:20;;;;;;;3.85;1.70;;;20.20;98.80;;;;;;5092609;28;20064;-76
2021/08/23 06:10:47;;;;;;;3.10;1.52;;;20.20;98.80;;;;;;5086323;28;20036;-80
2021/08/23 06:13:13;;;;;;;3.08;1.33;;;20.00;98.90;;;;;;5100769;27;20035;-77
2021/08/23 06:15:39;;;;;;;2.83;1.30;;;20.00;98.90;;;;;;5093890;28;20088;-78
2021/08/23 06:18:05;;;;;;;4.40;1.58;;;19.90;99.20;;;;;;5105088;28;20520;-78
2021/08/23 06:20:32;;;;;;;4.05;1.30;;;20.10;98.90;;;;;;5096273;28;20023;-77
2021/08/23 06:22:58;;;;;;;4.43;1.45;;;20.10;98.90;;;;;;5101972;27;20031;-75
2021/08/23 06:25:24;;;;;;;2.45;1.17;;;20.10;98.90;;;;;;5109271;27;20080;-78
2021/08/23 06:27:49;;;;;;;2.92;1.40;;;20.10;99.00;;;;;;5105599;28;20028;-76
2021/08/23 06:30:15;;;;;;;5.43;1.42;;;20.10;98.90;;;;;;5106145;27;20023;-79
2021/08/23 06:32:41;;;;;;;5.10;1.55;;;20.10;99.00;;;;;;5102454;27;20015;-78
2021/08/23 06:35:07;;;;;;;5.78;1.48;;;20.00;99.00;;;;;;5104689;27;20119;-78
2021/08/23 06:37:35;;;;;;;3.95;1.73;;;20.00;99.30;;;;;;5100396;27;20031;-77
2021/08/23 06:40:04;;;;;;;2.83;1.20;;;20.10;99.00;;;;;;5107056;27;20024;-77
2021/08/23 06:42:30;;;;;;;3.22;1.58;;;20.00;99.00;;;;;;5095823;28;20026;-77
2021/08/23 06:44:55;;;;;;;7.32;1.50;;;20.20;98.60;;;;;;5098991;28;20028;-77
2021/08/23 06:47:21;;;;;;;2.95;1.42;;;20.10;99.50;;;;;;5107513;27;20023;-76
2021/08/23 06:49:47;;;;;;;6.70;1.35;;;19.90;98.70;;;;;;5108286;27;20061;-77
2021/08/23 06:52:12;;;;;;;4.88;1.70;;;20.10;98.60;;;;;;5092132;27;20044;-78
2021/08/23 06:54:38;;;;;;;4.93;1.30;;;20.10;99.00;;;;;;5093904;28;20032;-79
2021/08/23 06:57:04;;;;;;;2.90;1.20;;;20.10;98.60;;;;;;5086963;28;20024;-78
2021/08/23 06:59:29;;;;;;;4.32;1.27;;;20.10;98.70;;;;;;5109946;27;20031;-79
2021/08/23 07:01:55;;;;;;;3.60;1.65;;;20.00;98.40;;;;;;5115137;27;20063;-79
2021/08/23 07:04:21;;;;;;;2.17;1.00;;;20.10;98.20;;;;;;5105912;28;20465;-79
2021/08/23 07:06:47;;;;;;;4.22;1.38;;;20.20;98.60;;;;;;5114527;27;20055;-79
2021/08/23 07:09:13;;;;;;;2.83;1.35;;;20.30;97.90;;;;;;5092917;27;20032;-78
2021/08/23 07:11:39;;;;;;;3.42;1.60;;;20.30;98.50;;;;;;5088415;28;20030;-78
2021/08/23 07:14:04;;;;;;;4.75;1.70;;;20.20;98.70;;;;;;5095421;28;20023;-78
2021/08/23 07:16:31;;;;;;;4.70;1.75;;;20.20;99.30;;;;;;5086317;28;20393;-79
2021/08/23 07:18:56;;;;;;;3.65;1.30;;;20.20;99.10;;;;;;5094247;27;20470;-79
2021/08/23 07:21:22;;;;;;;5.70;1.67;;;20.00;99.10;;;;;;5086466;27;20036;-79
2021/08/23 07:23:48;;;;;;;5.65;1.73;;;20.00;99.10;;;;;;5102206;28;20034;-79
2021/08/23 07:26:14;;;;;;;3.30;1.55;;;20.00;98.90;;;;;;5085463;28;20052;-79
2021/08/23 07:28:39;;;;;;;3.58;1.60;;;20.10;99.00;;;;;;5091419;28;20024;-78
2021/08/23 07:31:05;;;;;;;3.78;1.50;;;20.10;99.50;;;;;;5104117;27;20081;-78
2021/08/23 07:33:31;;;;;;;5.40;1.70;;;20.10;99.40;;;;;;5089398;27;20024;-79
2021/08/23 07:35:57;;;;;;;4.03;1.50;;;20.10;99.30;;;;;;5124357;27;20086;-78
2021/08/23 07:38:23;;;;;;;3.00;1.50;;;20.20;99.20;;;;;;5113072;27;20035;-78
2021/08/23 07:40:49;;;;;;;4.20;1.60;;;20.40;99.00;;;;;;5104309;27;20023;-78
2021/08/23 07:43:14;;;;;;;4.70;1.63;;;20.50;99.00;;;;;;5101418;28;20028;-78
2021/08/23 07:45:40;;;;;;;5.40;1.30;;;20.70;99.60;;;;;;5105265;28;20906;-78
2021/08/23 07:48:06;;;;;;;3.50;1.60;;;20.90;98.80;;;;;;5104890;28;20537;-78
2021/08/23 07:50:32;;;;;;;2.67;1.38;;;21.00;97.80;;;;;;5122717;27;20035;-79
2021/08/23 07:52:58;;;;;;;3.15;1.00;;;20.90;97.60;;;;;;5106654;28;20481;-79
2021/08/23 07:55:24;;;;;;;3.50;1.45;;;20.80;97.40;;;;;;5106399;28;20016;-79
2021/08/23 07:57:50;;;;;;;6.63;1.33;;;21.10;97.80;;;;;;5106568;28;20038;-78
2021/08/23 08:00:18;;;;;;;2.20;1.25;;;21.10;96.80;;;;;;5105111;28;20023;-78
2021/08/23 08:02:44;;;;;;;2.38;1.13;;;21.00;96.80;;;;;;5105916;28;20031;-79
2021/08/23 08:05:12;;;;;;;2.38;1.02;;;20.90;96.20;;;;;;5120835;27;20379;-79
2021/08/23 08:07:38;;;;;;;3.10;1.52;;;21.00;96.40;;;;;;5125012;27;20618;-78
2021/08/23 08:10:08;;;;;;;3.95;1.38;;;20.90;96.50;;;;;;5085993;27;20020;-79
2021/08/23 08:12:34;;;;;;;2.88;1.67;;;21.00;96.40;;;;;;5100750;28;20478;-79
2021/08/23 08:15:00;;;;;;;2.40;1.00;;;21.10;96.30;;;;;;5103415;28;20386;-79
2021/08/23 08:17:26;;;;;;;3.35;1.15;;;21.10;96.40;;;;;;5099224;28;20070;-80
2021/08/23 08:19:53;;;;;;;3.95;1.13;;;21.10;96.30;;;;;;5116212;28;20088;-80
2021/08/23 08:22:19;;;;;;;4.43;1.30;;;21.10;96.70;;;;;;5098751;28;20031;-79
2021/08/23 08:24:44;;;;;;;3.10;1.30;;;21.10;95.80;;;;;;5083711;28;20390;-79
2021/08/23 08:27:10;;;;;;;1.95;1.10;;;21.10;96.40;;;;;;5082168;28;20095;-78
2021/08/23 08:29:37;;;;;;;3.58;1.10;;;21.10;96.70;;;;;;5100786;27;20358;-80
2021/08/23 08:32:04;;;;;;;1.90;1.00;;;20.90;96.80;;;;;;5104405;28;20088;-81
2021/08/23 08:34:30;;;;;;;3.35;1.42;;;21.30;96.70;;;;;;5095738;27;20032;-79
2021/08/23 08:36:56;;;;;;;8.38;1.40;;;21.70;96.60;;;;;;5103219;27;20036;-79
2021/08/23 08:39:22;;;;;;;4.75;0.85;;;21.60;96.00;;;;;;5107134;27;20496;-80
2021/08/23 08:41:48;;;;;;;5.05;1.10;;;22.20;95.50;;;;;;5108818;28;20019;-79
2021/08/23 08:44:14;;;;;;;3.05;1.08;;;23.70;94.00;;;;;;5110623;27;20047;-80
2021/08/23 08:46:41;;;;;;;3.63;1.50;;;25.40;93.50;;;;;;5108572;27;20077;-81
2021/08/23 08:49:11;;;;;;;9.35;2.05;;;26.60;92.10;;;;;;5108391;27;20054;-80
2021/08/23 08:51:38;;;;;;;6.22;1.50;;;26.10;91.10;;;;;;5127767;27;20156;-79
2021/08/23 08:54:05;;;;;;;2.45;1.00;;;26.30;91.40;;;;;;5127844;27;20063;-79
2021/08/23 08:56:34;;;;;;;3.08;1.08;;;27.00;90.50;;;;;;5121723;27;20032;-79
2021/08/23 08:59:01;;;;;;;4.00;1.40;;;26.60;91.00;;;;;;5111187;27;20122;-81
2021/08/23 09:01:27;;;;;;;3.42;1.30;;;25.80;91.90;;;;;;5128817;27;20368;-79
2021/08/23 09:03:53;;;;;;;4.65;1.17;;;25.90;91.30;;;;;;5128534;27;20038;-81
2021/08/23 09:06:20;;;;;;;2.80;1.38;;;25.90;92.60;;;;;;5124045;27;20090;-79
2021/08/23 09:08:47;;;;;;;4.72;1.20;;;26.20;92.00;;;;;;5101864;28;20610;-79
2021/08/23 09:11:16;;;;;;;6.63;1.15;;;26.10;91.60;;;;;;5107902;28;20028;-79
2021/08/23 09:14:00;;;;;;;3.67;1.60;;;25.50;91.70;;;;;;5107618;28;20058;-79
2021/08/23 09:16:31;;;;;;;3.33;1.42;;;25.40;92.80;;;;;;5107489;27;20057;-79
2021/08/23 09:18:57;;;;;;;5.70;1.27;;;25.10;93.00;;;;;;5107281;27;20027;-79
2021/08/23 09:21:35;;;;;;;4.28;1.35;;;24.30;93.70;;;;;;5107206;27;20023;-79
2021/08/23 09:24:05;;;;;;;1.58;0.80;;;23.50;93.20;;;;;;5106855;28;20412;-79
2021/08/23 09:26:33;;;;;;;2.60;1.08;;;23.30;93.10;;;;;;5107621;28;20028;-79
2021/08/23 09:29:02;;;;;;;2.33;0.90;;;23.60;93.10;;;;;;5096350;28;20024;-79
2021/08/23 09:31:31;;;;;;;2.28;0.98;;;24.00;92.70;;;;;;5108262;27;20092;-79
2021/08/23 09:34:00;;;;;;;2.72;1.02;;;24.60;92.20;;;;;;5106285;27;20042;-79
2021/08/23 09:36:26;;;;;;;7.68;1.38;;;24.50;92.20;;;;;;5107263;28;20562;-79
2021/08/23 09:39:18;;;;;;;5.80;1.30;;;24.50;92.90;;;;;;5106192;28;20096;-79
2021/08/23 09:41:44;;;;;;;2.55;0.95;;;24.60;92.30;;;;;;5104936;27;20051;-79
2021/08/23 09:44:12;;;;;;;2.67;1.00;;;24.40;90.50;;;;;;5106932;28;20058;-78
2021/08/23 09:46:38;;;;;;;3.67;1.08;;;24.30;91.30;;;;;;5107932;27;20027;-79
2021/08/23 09:49:09;;;;;;;3.97;1.02;;;24.40;91.20;;;;;;5106638;28;20123;-79
2021/08/23 09:51:43;;;;;;;3.05;0.90;;;24.30;91.50;;;;;;5108650;27;20019;-79
2021/08/23 09:54:17;;;;;;;2.20;0.90;;;24.30;90.60;;;;;;5127030;27;20175;-79
2021/08/23 09:56:53;;;;;;;2.45;0.85;;;24.20;91.00;;;;;;5127509;27;20035;-80
2021/08/23 09:59:26;;;;;;;2.00;0.80;;;24.20;90.20;;;;;;5127170;27;20027;-79
2021/08/23 10:01:54;;;;;;;1.17;0.67;;;24.40;90.30;;;;;;5113491;27;20034;-79
2021/08/23 10:04:21;;;;;;;3.60;1.25;;;24.50;90.40;;;;;;5107953;27;20120;-78
2021/08/23 10:06:48;;;;;;;7.30;1.08;;;24.80;90.10;;;;;;5110182;27;20058;-80
2021/08/23 10:09:18;;;;;;;6.85;1.00;;;25.00;90.50;;;;;;5122257;27;20023;-79
2021/08/23 10:11:44;;;;;;;0.93;0.40;;;25.10;90.10;;;;;;5098302;28;20020;-79
2021/08/23 10:14:10;;;;;;;3.50;1.20;;;25.20;88.60;;;;;;5104912;28;20026;-79
2021/08/23 10:16:36;;;;;;;3.15;0.95;;;25.20;89.30;;;;;;5106512;28;20035;-79
2021/08/23 10:19:04;;;;;;;3.30;3.10;;;25.60;90.60;;;;;;5125192;27;20035;-79
2021/08/23 10:21:30;;;;;;;5.00;1.17;;;25.90;89.00;;;;;;5125631;27;20048;-79
2021/08/23 10:23:57;;;;;;;3.10;1.10;;;25.90;89.50;;;;;;5110707;27;20027;-80
2021/08/23 10:26:24;;;;;;;7.45;1.50;;;25.90;89.30;;;;;;5106661;28;20034;-79
2021/08/23 10:28:49;;;;;;;6.13;1.55;;;25.80;88.50;;;;;;5105104;27;20032;-78
2021/08/23 10:31:20;;;;;;;3.33;1.15;;;25.80;86.10;;;;;;5105649;27;20149;-79
2021/08/23 10:33:48;;;;;;;1.88;0.75;;;25.90;88.10;;;;;;5102047;27;20495;-79
2021/08/23 10:36:16;;;;;;;2.05;0.90;;;26.20;88.00;;;;;;5084146;28;20032;-79
2021/08/23 10:38:44;;;;;;;3.35;0.90;;;25.80;86.40;;;;;;5110315;27;20034;-79
2021/08/23 10:41:11;;;;;;;2.42;0.82;;;26.30;88.20;;;;;;5125668;27;20039;-79
2021/08/23 10:43:50;;;;;;;2.28;1.08;;;26.20;85.10;;;;;;5120598;27;20066;-80
2021/08/23 10:46:32;;;;;;;3.15;0.90;;;26.00;85.10;;;;;;5105102;28;20370;-79
2021/08/23 10:49:02;;;;;;;2.25;0.80;;;25.90;84.10;;;;;;5106516;27;20038;-79
2021/08/23 10:51:41;;;;;;;1.85;1.00;;;25.90;83.90;;;;;;5116828;27;20456;-79
2021/08/23 10:54:24;;;;;;;1.95;0.63;;;25.80;83.20;;;;;;5126448;27;20038;-79
2021/08/23 10:56:59;;;;;;;2.10;0.80;;;26.20;84.80;;;;;;5115844;27;20614;-80
2021/08/23 10:59:25;;;;;;;2.08;0.75;;;26.50;83.60;;;;;;5106837;27;20026;-81
2021/08/23 11:01:54;;;;;;;6.68;0.90;;;26.50;82.30;;;;;;5091257;28;20028;-79
2021/08/23 11:04:32;;;;;;;5.93;1.00;;;26.20;82.20;;;;;;5110400;27;20031;-79
2021/08/23 11:06:59;;;;;;;2.90;1.05;;;25.90;83.30;;;;;;5119098;27;20222;-79
2021/08/23 11:09:32;;;;;;;2.65;0.90;;;25.80;84.30;;;;;;5125762;27;20125;-79
2021/08/23 11:12:10;;;;;;;1.63;0.80;;;25.50;82.40;;;;;;5097150;27;20036;-79
2021/08/23 11:14:53;;;;;;;7.53;3.00;;;25.30;82.30;;;;;;5092774;27;20031;-79
2021/08/23 11:17:33;;;;;;;8.40;1.27;;;25.20;82.60;;;;;;5106562;27;20045;-79
2021/08/23 11:20:07;;;;;;;2.60;0.60;;;25.90;83.80;;;;;;5124720;27;20189;-79
2021/08/23 11:22:33;;;;;;;4.57;1.65;;;26.20;82.40;;;;;;5107958;27;20102;-79
2021/08/23 11:24:59;;;;;;;3.42;1.27;;;26.50;84.00;;;;;;5106059;27;20172;-79
2021/08/23 11:27:25;;;;;;;5.03;1.05;;;26.70;83.60;;;;;;5105238;28;20028;-80
2021/08/23 11:29:56;;;;;;;3.55;0.88;;;26.60;80.30;;;;;;5105220;28;20026;-79
2021/08/23 11:32:27;;;;;;;2.35;0.95;;;26.50;81.80;;;;;;5104380;28;20358;-79
2021/08/23 11:34:55;;;;;;;3.95;1.15;;;26.30;81.10;;;;;;5094663;27;20028;-79
2021/08/23 11:37:24;;;;;;;1.10;0.60;;;26.10;81.90;;;;;;5103902;27;20126;-79
2021/08/23 11:40:10;;;;;;;13.35;1.40;;;26.40;82.90;;;;;;5104661;28;20165;-80
2021/08/23 11:42:36;;;;;;;3.05;0.70;;;26.50;82.70;;;;;;5094143;28;20174;-80
2021/08/23 11:45:03;;;;;;;1.48;0.70;;;26.40;80.20;;;;;;5090473;28;20122;-79
2021/08/23 11:47:32;;;;;;;2.33;1.08;;;26.30;81.60;;;;;;5101616;27;20504;-79
2021/08/23 11:49:58;;;;;;;1.73;0.90;;;26.40;82.10;;;;;;5124931;27;20019;-79
2021/08/23 11:52:24;;;;;;;1.58;0.65;;;26.50;80.60;;;;;;5108726;27;20028;-79
2021/08/23 11:54:52;;;;;;;3.13;0.80;;;26.70;81.50;;;;;;5084230;28;20035;-79
2021/08/23 11:57:24;;;;;;;2.25;0.93;;;26.90;80.40;;;;;;5093864;27;20043;-79
2021/08/23 12:00:01;;;;;;;2.50;0.80;;;26.90;80.10;;;;;;5104667;28;20032;-79
2021/08/23 12:02:32;;;;;;;1.60;0.90;;;26.90;79.00;;;;;;5101486;28;20038;-80
2021/08/23 12:05:08;;;;;;;1.83;0.50;;;27.30;79.60;;;;;;5083943;28;20039;-79
2021/08/23 12:07:45;;;;;;;2.38;0.90;;;27.00;79.30;;;;;;5091149;28;20023;-79
2021/08/23 12:10:43;;;;;;;1.65;0.65;;;26.60;79.50;;;;;;5104088;28;20071;-79
2021/08/23 12:13:17;;;;;;;1.88;0.80;;;27.00;80.70;;;;;;5100388;28;20055;-81
2021/08/23 12:15:59;;;;;;;2.28;0.75;;;27.00;79.90;;;;;;5083965;28;20020;-79
2021/08/23 12:18:39;;;;;;;1.48;0.77;;;26.80;79.90;;;;;;5103536;28;20035;-79
2021/08/23 12:21:23;;;;;;;2.92;1.05;;;27.00;79.20;;;;;;5104695;28;20041;-79
2021/08/23 12:24:15;;;;;;;4.25;0.90;;;27.20;80.80;;;;;;5103539;28;20038;-80
2021/08/23 12:26:43;;;;;;;4.10;1.15;;;27.20;81.50;;;;;;5104567;28;20020;-79
2021/08/23 12:29:34;;;;;;;2.30;1.02;;;27.50;80.00;;;;;;5105229;28;20031;-78
2021/08/23 12:32:20;;;;;;;2.47;0.88;;;27.60;80.30;;;;;;5083957;28;20020;-79
2021/08/23 12:34:49;;;;;;;3.20;0.90;;;27.20;80.40;;;;;;5103964;28;20039;-79
2021/08/23 12:37:16;;;;;;;2.47;0.75;;;26.70;78.60;;;;;;5093682;28;20044;-80
2021/08/23 12:39:50;;;;;;;4.63;0.68;;;27.30;81.00;;;;;;5105703;28;20038;-80
2021/08/23 12:42:19;;;;;;;;;;;27.40;78.10;;;;;;5104889;27;20553;-79
2021/08/23 12:44:45;;;;;;;3.30;1.05;;;27.60;78.60;;;;;;5105898;28;19915;-80
2021/08/23 12:47:11;;;;;;;2.10;0.85;;;28.00;80.50;;;;;;5104322;28;20020;-79
2021/08/23 12:49:36;;;;;;;1.70;0.80;;;27.90;79.50;;;;;;5102241;28;20031;-80
2021/08/23 12:52:02;;;;;;;1.33;0.68;;;28.00;80.70;;;;;;5102799;28;20027;-79